createdAt,value
2023-05-22T00:01:43.526Z,99415.50
2023-05-22T00:04:19.539Z,99412.84
2023-05-22T00:06:46.432Z,99416.94
2023-05-22T00:09:13.090Z,99415.66
2023-05-22T00:11:39.797Z,99407.84
2023-05-22T00:14:06.536Z,99416.50
2023-05-22T00:16:33.365Z,99407.91
2023-05-22T00:19:01.960Z,99406.31
2023-05-22T00:21:34.712Z,99416.75
2023-05-22T00:24:01.985Z,99414.88
2023-05-22T00:26:28.709Z,99419.66
2023-05-22T00:28:55.538Z,99412.25
2023-05-22T00:31:22.101Z,99415.47
2023-05-22T00:36:15.855Z,99414.34
2023-05-22T00:38:42.399Z,99413.97
2023-05-22T00:41:09.021Z,99415.09
2023-05-22T00:43:36.284Z,99419.34
2023-05-22T00:46:03.011Z,99415.50
2023-05-22T00:48:29.667Z,99420.75
2023-05-22T00:50:58.084Z,99417.97
2023-05-22T00:53:26.055Z,99416.81
2023-05-22T00:55:54.496Z,99412.16
2023-05-22T00:58:22.048Z,99406.81
2023-05-22T01:03:26.852Z,99412.19
2023-05-22T01:05:54.686Z,99417.41
2023-05-22T01:08:21.747Z,99414.91
2023-05-22T01:10:57.044Z,99423.53
2023-05-22T01:13:45.225Z,99420.22
2023-05-22T01:16:23.942Z,99424.34
2023-05-22T01:18:56.269Z,99423.09
2023-05-22T01:21:36.842Z,99416.38
2023-05-22T01:24:18.669Z,99415.59
2023-05-22T01:27:06.800Z,99422.28
2023-05-22T01:29:48.070Z,99414.94
2023-05-22T01:32:20.027Z,99414.19
2023-05-22T01:34:49.418Z,99424.09
2023-05-22T01:37:18.437Z,99413.41
2023-05-22T01:39:46.391Z,99416.44
2023-05-22T01:42:13.462Z,99406.34
2023-05-22T01:44:41.456Z,99406.47
2023-05-22T01:47:08.476Z,99405.56
2023-05-22T01:49:36.458Z,99407.44
2023-05-22T01:52:13.066Z,99412.97
2023-05-22T01:54:50.392Z,99401.53
2023-05-22T01:57:28.654Z,99398.31
2023-05-22T02:00:10.004Z,99405.09
2023-05-22T02:02:38.725Z,99398.97
2023-05-22T02:05:08.597Z,99400.06
2023-05-22T02:07:38.120Z,99404.66
2023-05-22T02:10:07.319Z,99393.63
2023-05-22T02:12:34.396Z,99404.19
2023-05-22T02:15:01.608Z,99410.97
2023-05-22T02:17:28.349Z,99411.94
2023-05-22T02:19:54.973Z,99409.28
2023-05-22T02:22:21.545Z,99411.28
2023-05-22T02:24:48.810Z,99413.56
2023-05-22T02:27:16.910Z,99403.97
2023-05-22T02:29:43.457Z,99407.38
2023-05-22T02:32:10.397Z,99408.84
2023-05-22T02:34:38.070Z,99406.25
2023-05-22T02:37:05.539Z,99404.88
2023-05-22T02:39:32.213Z,99406.03
2023-05-22T02:41:59.048Z,99405.16
2023-05-22T02:44:25.628Z,99402.28
2023-05-22T02:46:52.665Z,99406.41
2023-05-22T02:49:19.389Z,99412.16
2023-05-22T02:51:47.873Z,99410.84
2023-05-22T02:54:16.099Z,99401.66
2023-05-22T02:56:43.784Z,99399.84
2023-05-22T02:59:10.545Z,99404.97
2023-05-22T03:01:39.002Z,99403.97
2023-05-22T03:04:06.628Z,99403.06
2023-05-22T03:06:34.345Z,99400.47
2023-05-22T03:09:01.333Z,99408.06
2023-05-22T03:11:27.975Z,99407.63
2023-05-22T03:13:54.536Z,99399.03
2023-05-22T03:16:21.413Z,99401.31
2023-05-22T03:18:51.316Z,99418.91
2023-05-22T03:21:17.894Z,99408.78
2023-05-22T03:23:45.011Z,99408.66
2023-05-22T03:26:11.692Z,99410.63
2023-05-22T03:28:38.260Z,99411.13
2023-05-22T03:31:05.027Z,99410.25
2023-05-22T03:33:31.645Z,99409.75
2023-05-22T03:35:58.204Z,99414.50
2023-05-22T03:38:24.954Z,99413.72
2023-05-22T03:40:51.550Z,99421.19
2023-05-22T03:43:18.086Z,99405.72
2023-05-22T03:45:44.855Z,99403.47
2023-05-22T03:48:12.798Z,99408.25
2023-05-22T03:50:39.888Z,99408.38
2023-05-22T03:53:06.766Z,99416.00
2023-05-22T03:55:33.358Z,99413.25
2023-05-22T03:57:59.932Z,99412.25
2023-05-22T04:00:27.184Z,99415.38
2023-05-22T04:02:54.879Z,99418.47
2023-05-22T04:05:22.240Z,99410.94
2023-05-22T04:07:49.034Z,99421.19
2023-05-22T04:10:15.660Z,99423.47
2023-05-22T04:12:42.193Z,99419.41
2023-05-22T04:15:09.438Z,99427.38
2023-05-22T04:17:39.800Z,99419.56
2023-05-22T04:20:07.285Z,99426.03
2023-05-22T04:22:34.222Z,99429.84
2023-05-22T04:25:00.773Z,99427.00
2023-05-22T04:27:29.788Z,99429.94
2023-05-22T04:29:56.479Z,99437.66
2023-05-22T04:32:23.753Z,99442.81
2023-05-22T04:34:51.124Z,99443.78
2023-05-22T04:37:20.447Z,99445.41
2023-05-22T04:39:47.377Z,99444.53
2023-05-22T04:42:14.588Z,99450.06
2023-05-22T04:44:42.012Z,99442.63
2023-05-22T04:47:12.209Z,99447.03
2023-05-22T04:49:39.218Z,99454.44
2023-05-22T04:52:09.086Z,99448.31
2023-05-22T04:54:36.233Z,99447.56
2023-05-22T04:57:04.549Z,99452.25
2023-05-22T04:59:38.166Z,99445.84
2023-05-22T05:02:07.913Z,99450.19
2023-05-22T05:04:34.688Z,99455.72
2023-05-22T05:07:02.667Z,99451.00
2023-05-22T05:09:29.566Z,99456.97
2023-05-22T05:11:56.345Z,99461.53
2023-05-22T05:14:23.223Z,99454.75
2023-05-22T05:16:51.822Z,99451.56
2023-05-22T05:19:21.674Z,99455.97
2023-05-22T05:21:49.589Z,99443.81
2023-05-22T05:24:19.992Z,99449.56
2023-05-22T05:26:46.691Z,99444.19
2023-05-22T05:29:13.320Z,99451.56
2023-05-22T05:31:39.922Z,99448.44
2023-05-22T05:34:06.712Z,99453.31
2023-05-22T05:36:33.379Z,99454.72
2023-05-22T05:39:00.028Z,99460.63
2023-05-22T05:41:26.795Z,99456.25
2023-05-22T05:43:53.486Z,99464.91
2023-05-22T05:46:20.157Z,99462.22
2023-05-22T05:48:46.933Z,99458.56
2023-05-22T05:51:13.649Z,99454.44
2023-05-22T05:53:43.278Z,99461.81
2023-05-22T05:56:10.006Z,99465.81
2023-05-22T05:58:37.184Z,99462.94
2023-05-22T06:01:04.224Z,99472.75
2023-05-22T06:03:31.315Z,99466.00
2023-05-22T06:05:58.377Z,99470.22
2023-05-22T06:08:25.122Z,99480.13
2023-05-22T06:10:51.743Z,99476.97
2023-05-22T06:13:18.449Z,99475.47
2023-05-22T06:15:45.093Z,99473.28
2023-05-22T06:18:11.890Z,99488.38
2023-05-22T06:20:39.986Z,99480.84
2023-05-22T06:23:06.966Z,99486.16
2023-05-22T06:25:33.821Z,99479.59
2023-05-22T06:28:01.042Z,99483.09
2023-05-22T06:30:39.631Z,99476.66
2023-05-22T06:33:07.793Z,99483.69
2023-05-22T06:35:34.567Z,99478.50
2023-05-22T06:38:01.124Z,99474.75
2023-05-22T06:40:27.972Z,99477.81
2023-05-22T06:42:54.602Z,99486.44
2023-05-22T06:45:21.227Z,99472.03
2023-05-22T06:47:52.964Z,99475.16
2023-05-22T06:50:20.650Z,99476.19
2023-05-22T06:52:47.261Z,99471.56
2023-05-22T06:55:14.082Z,99476.88
2023-05-22T06:57:40.801Z,99477.00
2023-05-22T07:00:09.623Z,99470.56
2023-05-22T07:02:36.322Z,99477.81
2023-05-22T07:05:03.256Z,99473.44
2023-05-22T07:07:31.221Z,99473.50
2023-05-22T07:09:57.895Z,99480.06
2023-05-22T07:12:26.300Z,99487.00
2023-05-22T07:14:53.874Z,99475.84
2023-05-22T07:17:21.972Z,99481.38
2023-05-22T07:19:48.894Z,99491.56
2023-05-22T07:22:15.857Z,99485.31
2023-05-22T07:24:42.961Z,99490.78
2023-05-22T07:27:09.864Z,99499.94
2023-05-22T07:29:36.423Z,99500.22
2023-05-22T07:32:03.266Z,99499.13
2023-05-22T07:34:34.188Z,99508.69
2023-05-22T07:37:07.411Z,99506.13
2023-05-22T07:39:34.019Z,99505.56
2023-05-22T07:42:01.628Z,99505.84
2023-05-22T07:44:28.730Z,99502.06
2023-05-22T07:46:55.795Z,99502.00
2023-05-22T07:49:23.808Z,99503.28
2023-05-22T07:51:50.792Z,99507.25
2023-05-22T07:54:18.298Z,99516.50
2023-05-22T07:56:46.066Z,99510.03
2023-05-22T07:59:13.029Z,99512.06
2023-05-22T08:01:41.817Z,99513.19
2023-05-22T08:04:08.823Z,99516.16
2023-05-22T08:06:36.291Z,99520.13
2023-05-22T08:09:04.406Z,99516.19
2023-05-22T08:11:31.249Z,99520.41
2023-05-22T08:13:58.300Z,99513.13
2023-05-22T08:16:25.079Z,99521.59
2023-05-22T08:18:51.946Z,99509.53
2023-05-22T08:21:18.989Z,99520.88
2023-05-22T08:23:45.670Z,99521.91
2023-05-22T08:26:12.227Z,99518.53
2023-05-22T08:28:44.207Z,99515.38
2023-05-22T08:31:11.717Z,99521.50
2023-05-22T08:33:38.637Z,99506.94
2023-05-22T08:36:06.187Z,99504.91
2023-05-22T08:38:32.879Z,99504.25
2023-05-22T08:41:00.169Z,99504.47
2023-05-22T08:43:28.725Z,99509.34
2023-05-22T08:46:16.304Z,99496.53
2023-05-22T08:48:43.583Z,99503.75
2023-05-22T08:51:13.332Z,99505.31
2023-05-22T08:53:43.477Z,99507.25
2023-05-22T08:56:10.785Z,99499.59
2023-05-22T08:58:38.175Z,99498.22
2023-05-22T09:01:06.986Z,99499.09
2023-05-22T09:03:35.342Z,99502.03
2023-05-22T09:06:02.510Z,99515.72
2023-05-22T09:08:29.220Z,99521.13
2023-05-22T09:10:56.635Z,99522.00
2023-05-22T09:13:29.165Z,99514.06
2023-05-22T09:16:12.992Z,99516.25
2023-05-22T09:18:40.602Z,99519.91
2023-05-22T09:21:21.558Z,99509.22
2023-05-22T09:23:54.848Z,99518.94
2023-05-22T09:26:21.607Z,99507.50
2023-05-22T09:28:48.196Z,99508.91
2023-05-22T09:31:15.271Z,99505.09
2023-05-22T09:33:44.240Z,99506.16
2023-05-22T09:36:11.122Z,99509.31
2023-05-22T09:38:39.353Z,99500.66
2023-05-22T09:41:06.194Z,99508.16
2023-05-22T09:43:33.693Z,99498.75
2023-05-22T09:46:06.927Z,99518.50
2023-05-22T09:48:36.642Z,99504.00
2023-05-22T09:51:04.583Z,99504.59
2023-05-22T09:53:33.163Z,99495.66
2023-05-22T09:56:00.487Z,99496.41
2023-05-22T09:58:30.927Z,99501.00
2023-05-22T10:00:58.382Z,99489.19
2023-05-22T10:03:27.140Z,99490.66
2023-05-22T10:05:56.416Z,99488.78
2023-05-22T10:08:28.573Z,99508.06
2023-05-22T10:10:55.425Z,99500.44
2023-05-22T10:13:22.302Z,99488.19
2023-05-22T10:15:49.997Z,99491.44
2023-05-22T10:18:17.586Z,99492.41
2023-05-22T10:20:47.008Z,99489.13
2023-05-22T10:23:15.302Z,99485.34
2023-05-22T10:25:42.886Z,99493.34
2023-05-22T10:28:10.468Z,99479.94
2023-05-22T10:30:44.572Z,99494.22
2023-05-22T10:33:22.408Z,99490.34
2023-05-22T10:35:59.207Z,99482.72
2023-05-22T10:38:40.073Z,99468.88
2023-05-22T10:41:07.914Z,99470.00
2023-05-22T10:43:38.795Z,99474.00
2023-05-22T10:46:07.157Z,99462.78
2023-05-22T10:48:45.456Z,99464.81
2023-05-22T10:51:19.441Z,99473.47
2023-05-22T10:53:53.421Z,99464.63
2023-05-22T10:56:20.815Z,99461.78
2023-05-22T10:59:03.009Z,99453.34
2023-05-22T11:01:29.693Z,99463.69
2023-05-22T11:03:59.912Z,99463.34
2023-05-22T11:06:37.055Z,99458.66
2023-05-22T11:09:32.439Z,99452.28
2023-05-22T11:12:17.766Z,99462.13
2023-05-22T11:14:53.052Z,99459.72
2023-05-22T11:17:29.716Z,99474.75
2023-05-22T11:20:00.913Z,99469.34
2023-05-22T11:22:31.721Z,99456.53
2023-05-22T11:24:58.423Z,99456.66
2023-05-22T11:27:25.601Z,99451.66
2023-05-22T11:29:52.927Z,99454.97
2023-05-22T11:32:21.102Z,99444.38
2023-05-22T11:34:50.507Z,99443.38
2023-05-22T11:37:20.980Z,99453.75
2023-05-22T11:39:58.257Z,99455.47
2023-05-22T11:42:25.270Z,99460.69
2023-05-22T11:44:51.881Z,99444.88
2023-05-22T11:47:18.553Z,99437.16
2023-05-22T11:49:45.362Z,99443.53
2023-05-22T11:52:11.945Z,99439.63
2023-05-22T11:54:39.027Z,99434.72
2023-05-22T11:57:09.329Z,99435.22
2023-05-22T11:59:36.257Z,99429.28
2023-05-22T12:02:03.092Z,99428.25
2023-05-22T12:04:29.924Z,99419.75
2023-05-22T12:06:56.935Z,99434.97
2023-05-22T12:09:24.071Z,99411.78
2023-05-22T12:11:51.041Z,99423.16
2023-05-22T12:14:17.717Z,99422.19
2023-05-22T12:16:44.722Z,99421.25
2023-05-22T12:19:12.727Z,99419.56
2023-05-22T12:21:41.011Z,99425.97
2023-05-22T12:24:08.473Z,99421.22
2023-05-22T12:26:36.504Z,99421.06
2023-05-22T12:29:06.129Z,99418.81
2023-05-22T12:31:37.562Z,99420.63
2023-05-22T12:34:06.508Z,99414.53
2023-05-22T12:36:33.981Z,99426.34
2023-05-22T12:39:00.808Z,99430.16
2023-05-22T12:41:27.374Z,99430.66
2023-05-22T12:43:53.933Z,99424.84
2023-05-22T12:46:20.772Z,99419.88
2023-05-22T12:48:47.415Z,99412.22
2023-05-22T12:51:14.008Z,99406.44
2023-05-22T12:53:40.796Z,99410.38
2023-05-22T12:56:07.327Z,99408.09
2023-05-22T12:58:34.078Z,99403.66
2023-05-22T13:01:00.993Z,99409.09
2023-05-22T13:03:27.748Z,99397.53
2023-05-22T13:05:54.302Z,99407.50
2023-05-22T13:08:21.079Z,99398.06
2023-05-22T13:10:47.633Z,99390.91
2023-05-22T13:13:14.204Z,99385.34
2023-05-22T13:15:41.521Z,99385.38
2023-05-22T13:18:08.349Z,99392.47
2023-05-22T13:20:37.345Z,99399.94
2023-05-22T13:23:04.815Z,99391.31
2023-05-22T13:25:31.357Z,99385.25
2023-05-22T13:27:59.883Z,99380.28
2023-05-22T13:30:26.930Z,99375.84
2023-05-22T13:32:53.708Z,99378.91
2023-05-22T13:35:20.542Z,99380.81
2023-05-22T13:37:47.460Z,99371.06
2023-05-22T13:40:15.209Z,99393.00
2023-05-22T13:42:41.894Z,99371.78
2023-05-22T13:45:09.679Z,99365.88
2023-05-22T13:47:36.420Z,99361.28
2023-05-22T13:50:03.203Z,99364.03
2023-05-22T13:52:30.055Z,99370.31
2023-05-22T13:54:56.620Z,99374.66
2023-05-22T13:57:23.190Z,99359.94
2023-05-22T13:59:49.959Z,99360.75
2023-05-22T14:02:16.567Z,99359.47
2023-05-22T14:04:43.216Z,99355.00
2023-05-22T14:07:10.041Z,99370.34
2023-05-22T14:09:36.603Z,99354.81
2023-05-22T14:12:03.495Z,99350.13
2023-05-22T14:14:30.157Z,99354.97
2023-05-22T14:16:57.308Z,99352.19
2023-05-22T14:19:24.717Z,99341.03
2023-05-22T14:21:51.923Z,99352.41
2023-05-22T14:24:18.523Z,99350.84
2023-05-22T14:26:45.485Z,99343.94
2023-05-22T14:29:12.715Z,99342.03
2023-05-22T14:31:50.521Z,99353.22
2023-05-22T14:34:18.503Z,99332.94
2023-05-22T14:36:45.099Z,99325.44
2023-05-22T14:39:11.748Z,99330.28
2023-05-22T14:41:38.498Z,99330.47
2023-05-22T14:44:05.136Z,99330.16
2023-05-22T14:46:31.788Z,99333.97
2023-05-22T14:48:58.584Z,99339.47
2023-05-22T14:51:25.196Z,99341.44
2023-05-22T14:53:51.937Z,99329.84
2023-05-22T14:56:18.661Z,99337.59
2023-05-22T14:58:45.448Z,99333.25
2023-05-22T15:01:12.063Z,99326.19
2023-05-22T15:03:38.663Z,99354.06
2023-05-22T15:06:06.076Z,99335.41
2023-05-22T15:08:32.738Z,99327.94
2023-05-22T15:10:59.558Z,99321.34
2023-05-22T15:13:26.221Z,99314.59
2023-05-22T15:15:52.928Z,99328.19
2023-05-22T15:18:20.230Z,99347.44
2023-05-22T15:20:46.985Z,99337.69
2023-05-22T15:23:13.805Z,99327.91
2023-05-22T15:25:41.170Z,99351.53
2023-05-22T15:28:08.096Z,99327.97
2023-05-22T15:30:38.947Z,99327.50
2023-05-22T15:33:05.801Z,99340.31
2023-05-22T15:35:32.524Z,99337.00
2023-05-22T15:37:59.254Z,99328.19
2023-05-22T15:40:25.960Z,99326.13
2023-05-22T15:42:53.378Z,99317.75
2023-05-22T15:45:20.906Z,99328.84
2023-05-22T15:47:48.173Z,99341.41
2023-05-22T15:50:14.969Z,99322.97
2023-05-22T15:52:41.731Z,99326.09
2023-05-22T15:55:08.603Z,99325.91
2023-05-22T15:57:35.406Z,99325.09
2023-05-22T16:00:02.296Z,99331.31
2023-05-22T16:02:29.183Z,99334.09
2023-05-22T16:04:56.306Z,99334.78
2023-05-22T16:07:22.930Z,99335.75
2023-05-22T16:09:50.508Z,99334.53
2023-05-22T16:12:18.968Z,99335.75
2023-05-22T16:14:45.770Z,99329.69
2023-05-22T16:17:12.593Z,99328.84
2023-05-22T16:19:39.268Z,99324.25
2023-05-22T16:22:05.947Z,99319.97
2023-05-22T16:24:33.893Z,99322.88
2023-05-22T16:27:00.792Z,99320.59
2023-05-22T16:29:27.375Z,99325.13
2023-05-22T16:31:54.137Z,99332.38
2023-05-22T16:34:20.880Z,99323.84
2023-05-22T16:36:47.567Z,99318.38
2023-05-22T16:39:15.597Z,99326.22
2023-05-22T16:41:42.209Z,99318.22
2023-05-22T16:44:08.888Z,99323.91
2023-05-22T16:46:35.767Z,99323.03
2023-05-22T16:49:02.609Z,99326.47
2023-05-22T16:51:29.343Z,99318.22
2023-05-22T16:53:56.133Z,99311.38
2023-05-22T16:56:22.822Z,99320.22
2023-05-22T16:58:49.388Z,99313.41
2023-05-22T17:01:16.267Z,99306.41
2023-05-22T17:03:43.812Z,99305.53
2023-05-22T17:06:10.652Z,99307.81
2023-05-22T17:08:37.732Z,99327.44
2023-05-22T17:11:04.471Z,99313.50
2023-05-22T17:13:31.105Z,99312.44
2023-05-22T17:15:57.958Z,99318.69
2023-05-22T17:18:24.570Z,99313.63
2023-05-22T17:20:53.947Z,99321.56
2023-05-22T17:23:20.996Z,99322.84
2023-05-22T17:25:47.923Z,99326.78
2023-05-22T17:28:15.022Z,99318.94
2023-05-22T17:30:43.015Z,99325.94
2023-05-22T17:33:10.902Z,99319.72
2023-05-22T17:35:37.566Z,99320.72
2023-05-22T17:38:04.269Z,99319.84
2023-05-22T17:43:02.523Z,99327.09
2023-05-22T17:45:30.353Z,99338.94
2023-05-22T17:47:57.068Z,99324.47
2023-05-22T17:50:23.706Z,99329.75
2023-05-22T17:52:50.510Z,99332.28
2023-05-22T17:55:17.690Z,99337.22
2023-05-22T17:57:44.316Z,99337.00
2023-05-22T18:00:11.824Z,99339.69
2023-05-22T18:02:38.562Z,99340.44
2023-05-22T18:05:06.238Z,99360.91
2023-05-22T18:07:33.118Z,99364.63
2023-05-22T18:09:59.801Z,99364.09
2023-05-22T18:12:31.554Z,99356.97
2023-05-22T18:14:59.307Z,99377.06
2023-05-22T18:17:25.965Z,99389.75
2023-05-22T18:19:52.559Z,99393.31
2023-05-22T18:22:19.261Z,99390.53
2023-05-22T18:24:45.987Z,99387.56
2023-05-22T18:27:12.567Z,99390.97
2023-05-22T18:29:40.238Z,99398.16
2023-05-22T18:32:09.456Z,99396.06
2023-05-22T18:34:37.810Z,99398.69
2023-05-22T18:37:04.756Z,99407.44
2023-05-22T18:39:31.535Z,99406.66
2023-05-22T18:41:58.707Z,99410.47
2023-05-22T18:44:25.408Z,99420.28
2023-05-22T18:46:52.123Z,99433.22
2023-05-22T18:49:18.863Z,99428.09
2023-05-22T18:51:46.015Z,99431.66
2023-05-22T18:54:12.627Z,99439.53
2023-05-22T18:56:39.419Z,99430.66
2023-05-22T18:59:06.186Z,99450.47
2023-05-22T19:01:33.217Z,99440.44
2023-05-22T19:04:00.873Z,99434.56
2023-05-22T19:06:27.585Z,99445.28
2023-05-22T19:08:54.346Z,99454.19
2023-05-22T19:11:21.043Z,99448.34
2023-05-22T19:13:47.705Z,99452.38
2023-05-22T19:16:14.535Z,99457.56
2023-05-22T19:18:41.593Z,99458.09
2023-05-22T19:21:08.521Z,99462.09
2023-05-22T19:23:35.173Z,99465.66
2023-05-22T19:26:01.898Z,99468.16
2023-05-22T19:28:28.775Z,99467.09
2023-05-22T19:30:58.207Z,99474.53
2023-05-22T19:33:26.361Z,99484.94
2023-05-22T19:35:53.580Z,99494.91
2023-05-22T19:38:20.343Z,99499.19
2023-05-22T19:40:46.954Z,99497.25
2023-05-22T19:43:13.784Z,99508.00
2023-05-22T19:45:40.481Z,99506.88
2023-05-22T19:48:07.152Z,99506.88
2023-05-22T19:50:35.635Z,99511.75
2023-05-22T19:53:02.419Z,99503.56
2023-05-22T19:55:29.114Z,99517.47
2023-05-22T19:57:55.886Z,99524.22
2023-05-22T20:00:22.852Z,99523.75
2023-05-22T20:02:50.263Z,99517.69
2023-05-22T20:05:17.157Z,99527.47
2023-05-22T20:07:43.749Z,99534.97
2023-05-22T20:10:11.276Z,99531.63
2023-05-22T20:12:38.559Z,99541.47
2023-05-22T20:15:07.193Z,99533.88
2023-05-22T20:17:34.371Z,99534.25
2023-05-22T20:20:01.126Z,99538.22
2023-05-22T20:22:28.026Z,99541.59
2023-05-22T20:24:54.689Z,99539.56
2023-05-22T20:27:21.494Z,99549.06
2023-05-22T20:29:50.282Z,99542.66
2023-05-22T20:32:17.193Z,99539.72
2023-05-22T20:34:45.316Z,99547.47
2023-05-22T20:37:13.727Z,99546.28
2023-05-22T20:39:44.360Z,99548.72
2023-05-22T20:42:13.092Z,99555.78
2023-05-22T20:44:41.298Z,99544.16
2023-05-22T20:47:08.908Z,99546.63
2023-05-22T20:49:36.089Z,99551.16
2023-05-22T20:52:02.906Z,99550.00
2023-05-22T20:54:34.098Z,99550.31
2023-05-22T20:57:01.579Z,99553.25
2023-05-22T20:59:31.007Z,99554.28
2023-05-22T21:01:57.936Z,99545.72
2023-05-22T21:04:26.261Z,99554.00
2023-05-22T21:06:54.106Z,99545.84
2023-05-22T21:09:20.790Z,99556.78
2023-05-22T21:11:47.562Z,99564.25
2023-05-22T21:14:14.580Z,99562.59
2023-05-22T21:16:41.290Z,99564.16
2023-05-22T21:19:08.153Z,99572.84
2023-05-22T21:21:36.325Z,99568.38
2023-05-22T21:24:03.458Z,99576.69
2023-05-22T21:26:30.185Z,99575.75
2023-05-22T21:28:57.221Z,99569.53
2023-05-22T21:31:23.978Z,99579.50
2023-05-22T21:33:50.746Z,99570.44
2023-05-22T21:36:17.498Z,99575.81
2023-05-22T21:38:44.716Z,99570.94
2023-05-22T21:41:14.455Z,99562.44
2023-05-22T21:43:41.457Z,99571.22
2023-05-22T21:46:08.315Z,99576.28
2023-05-22T21:48:34.972Z,99581.81
2023-05-22T21:51:01.605Z,99586.53
2023-05-22T21:53:28.181Z,99588.63
2023-05-22T21:55:54.781Z,99589.91
2023-05-22T21:58:21.433Z,99589.78
2023-05-22T22:00:48.020Z,99593.19
2023-05-22T22:03:14.754Z,99597.28
2023-05-22T22:05:41.680Z,99605.56
2023-05-22T22:08:08.252Z,99596.38
2023-05-22T22:10:34.855Z,99595.50
2023-05-22T22:13:02.356Z,99611.72
2023-05-22T22:15:29.046Z,99620.63
2023-05-22T22:17:59.571Z,99621.63
2023-05-22T22:20:42.705Z,99623.56
2023-05-22T22:23:11.529Z,99627.53
2023-05-22T22:25:39.275Z,99622.66
2023-05-22T22:28:07.333Z,99627.75
2023-05-22T22:30:35.320Z,99634.69
2023-05-22T22:33:02.171Z,99636.31
2023-05-22T22:35:28.879Z,99636.44
2023-05-22T22:37:55.586Z,99640.50
2023-05-22T22:40:22.763Z,99635.00
2023-05-22T22:42:50.348Z,99640.63
2023-05-22T22:45:17.041Z,99637.44
2023-05-22T22:47:43.671Z,99644.06
2023-05-22T22:50:10.565Z,99638.59
2023-05-22T22:52:37.957Z,99646.09
2023-05-22T22:55:06.705Z,99651.81
2023-05-22T22:57:33.435Z,99656.19
2023-05-22T23:00:00.167Z,99646.56
2023-05-22T23:02:26.732Z,99645.09
2023-05-22T23:04:53.453Z,99653.25
2023-05-22T23:07:20.192Z,99638.84
2023-05-22T23:09:46.884Z,99641.88
2023-05-22T23:12:13.496Z,99645.53
2023-05-22T23:14:40.204Z,99639.41
2023-05-22T23:17:06.800Z,99638.53
2023-05-22T23:19:33.468Z,99639.31
2023-05-22T23:22:00.208Z,99642.38
2023-05-22T23:24:26.752Z,99640.00
2023-05-22T23:26:53.361Z,99637.31
2023-05-22T23:29:20.360Z,99643.84
2023-05-22T23:31:47.625Z,99643.75
2023-05-22T23:34:14.306Z,99647.06
2023-05-22T23:36:41.388Z,99640.75
2023-05-22T23:39:08.101Z,99645.47
2023-05-22T23:41:35.604Z,99636.78
2023-05-22T23:44:02.610Z,99641.66
2023-05-22T23:46:29.548Z,99643.72
2023-05-22T23:48:56.403Z,99646.81
2023-05-22T23:51:23.148Z,99642.84
2023-05-22T23:53:49.892Z,99651.41
2023-05-22T23:56:17.111Z,99649.28
2023-05-22T23:58:43.792Z,99641.53
